• Join FlightAware (Why Join?)
  • Login
  • US Flag 
07:46AM EDT


 

Airport Tracker/Info


-or-


 

Live Flight TrackerFlight Track Log ✈ ASA525 ✈ 06-May-2013 ✈ KBUR - KSEA

Flight Track Log - Related Links

Times and Time Zones

All times are in EDT time to prevent confusion due to time zone crossing. See the ASA525 flight status page for this flight to view local times or setup timezone preferences in your user account.

Time Position Orientation Groundspeed Altitude Reporting Facility
EDT Latitude Longitude Course Direction KTS MPH feet Rate Location/Type
02:08PM 34.1594 -118.4306 330° Northwest 224 258 5,200  Level Los Angeles Center
02:09PM 34.2250 -118.4767 330° Northwest 272 313 7,800 2,760 Climbing Los Angeles Center
02:10PM 34.2964 -118.5222 332° Northwest 288 331 11,000 2,640 Climbing Los Angeles Center
02:12PM 34.4902 -118.5683 338° Northwest  Level Estimated
02:12PM 34.4653 -118.6339 338° Northwest 369 425 16,000  Level Los Angeles Center
02:14PM 34.5941 -118.7471 338° Northwest  Level FlightAware Approximate
02:15PM 34.7758 -118.8436 338° Northwest 406 467 25,600  Level Los Angeles Center
02:16PM 34.8950 -118.8978 340° North 431 496 27,700 1,920 Climbing Los Angeles Center
02:18PM 35.0750 -118.9661 343° North 449 517 30,600 1,920 Climbing Oakland Center
02:18PM 35.1475 -118.9933 343° North 456 525 31,700 1,200 Climbing Los Angeles Center
02:19PM 35.2706 -119.0419 342° North 466 536 32,500 1,200 Climbing Los Angeles Center
02:20PM 35.3925 -119.0894 342° North 463 533 34,300 1,260 Climbing Los Angeles Center
02:23PM 35.7086 -119.2128 342° North 460 529 37,100 1,080 Climbing Oakland Center
02:24PM 35.8331 -119.2625 342° North 469 540 38,300 1,140 Climbing Oakland Center
02:25PM 35.9542 -119.3114 342° North 464 534 39,500 780 Climbing Oakland Center
02:26PM 36.0772 -119.3586 343° North 466 536 39,900 240 Climbing Oakland Center
02:27PM 36.2000 -119.4072 342° North 466 536 40,000  Climbing Oakland Center
02:28PM 36.4192 -119.4986 341° North 466 536 40,000  Level Los Angeles Center
02:29PM 36.4692 -119.5153 345° North 466 536 40,000  Level Oakland Center
02:31PM 36.7136 -119.6158 342° North 460 529 40,000  Level Oakland Center
02:32PM 36.8342 -119.6631 343° North 464 534 40,000  Level Oakland Center
02:33PM 36.9572 -119.7150 341° North 465 535 40,000  Level Oakland Center
02:35PM 37.1335 -119.7884 342° North  Level FlightAware Approximate
02:37PM 37.4492 -119.9150 350° North 472 543 40,000  Level Oakland Center
02:38PM 37.5964 -119.9747 342° North 472 543 40,000  Level Oakland Center
02:39PM 37.7208 -120.0239 343° North 469 540 40,000  Level Oakland Center
02:41PM 37.8786 -120.0978 340° North  Level FlightAware Approximate
02:42PM 37.9147 -120.1070 350° North  Level FlightAware Approximate
02:43PM 38.0303 -120.1327 350° North  Level FlightAware Approximate
02:43PM 38.2178 -120.1997 345° North 465 535 40,000  Level Oakland Center
02:44PM 38.3450 -120.2383 347° North 469 540 40,000  Level Oakland Center
02:45PM 38.4717 -120.2772 346° North 471 542 40,000  Level Oakland Center
02:46PM 38.6222 -120.3244 346° North 467 537 40,000  Level Oakland Center
02:48PM 38.7669 -120.3682 347° North  Level FlightAware Approximate
02:48PM 38.6783 -120.3350 345° North  Level FlightAware Approximate
02:48PM 38.8750 -120.4036 347° North 471 542 40,000  Level Oakland Center
02:49PM 38.7915 -120.3745 345° North  Level FlightAware Approximate
02:49PM 39.0019 -120.4439 346° North 472 543 40,000  Level Oakland Center
02:50PM 39.1300 -120.4808 347° North 473 544 40,000  Level Oakland Center
02:51PM 39.2581 -120.5167 348° North 473 544 40,000  Level Oakland Center
02:53PM 39.5342 -120.5967 347° North 462 532 40,000  Level Oakland Center
02:54PM 39.6592 -120.6331 347° North 461 531 40,000  Level Oakland Center
02:55PM 39.7831 -120.6672 348° North 458 527 40,000  Level Oakland Center
02:59PM 40.1739 -120.7822 347° North 467 537 40,000  Level Oakland Center
03:00PM 40.3014 -120.8197 347° North 473 544 40,000  Level Oakland Center
03:02PM 40.4795 -120.9032 340° North  Level FlightAware Approximate
03:02PM 40.6092 -120.9133 340° North 468 539 40,000  Level Seattle Center
03:03PM 40.6911 -120.9392 347° North 484 557 40,000  Level Oakland Center
03:04PM 40.8167 -120.9764 347° North 469 540 40,000  Level Oakland Center
03:05PM 40.9417 -121.0150 347° North 485 558 40,000  Level Oakland Center
03:06PM 41.0644 -121.0517 347° North 479 551 40,000  Level Oakland Center
03:06PM 41.1147 -121.0661 348° North 456 525 40,000  Level Seattle Center
03:08PM 41.3106 -121.1281 347° North 453 521 40,000  Level Oakland Center
03:09PM 41.4331 -121.1667 347° North 453 521 40,000  Level Oakland Center
03:09PM 41.4822 -121.1803 348° North 454 522 40,000  Level Seattle Center
03:10PM 41.6061 -121.2197 347° North 456 525 40,000  Level Seattle Center
03:11PM 41.7306 -121.2575 347° North 460 529 40,000  Level Seattle Center
03:12PM 41.8556 -121.2972 347° North 462 532 40,000  Level Seattle Center
03:13PM 42.0044 -121.3436 347° North 460 529 40,000  Level Seattle Center
03:16PM 42.1824 -121.4538 335° Northwest  Level FlightAware Approximate
03:16PM 42.3817 -121.4633 335° Northwest 471 542 40,000  Level Seattle Center
03:17PM 42.5050 -121.5017 347° North 463 533 40,000  Level Seattle Center
03:18PM 42.6306 -121.5400 347° North 465 535 40,000  Level Seattle Center
03:20PM 42.7759 -121.5921 345° North  Level FlightAware Approximate
03:21PM 43.0025 -121.6608 345° North 460 529 40,000  Level Seattle Center
03:22PM 43.1281 -121.7028 346° North 465 535 40,000  Level Seattle Center
03:24PM 43.2650 -121.7561 344° North  Level FlightAware Approximate
03:24PM 43.4036 -121.7933 347° North 463 533 40,000  Level Seattle Center
03:26PM 43.6658 -121.8756 347° North 463 533 40,000  Level Seattle Center
03:27PM 43.5787 -121.8846 345° North  Level FlightAware Approximate
03:28PM 43.7979 -121.8898 356° North  Level Estimated
03:29PM 44.0389 -122.0011 356° North 460 529 40,000  Level Seattle Center
03:31PM 44.0690 -122.0503 347° North  Level FlightAware Approximate
03:31PM 44.2858 -122.0839 347° North 456 525 40,000  Level Seattle Center
03:32PM 44.4017 -122.1228 347° North 439 505 40,000  Level Seattle Center
03:34PM 44.5181 -122.1619 347° North 434 499 40,000  Level Seattle Center
03:35PM 44.6260 -121.9808 356° North  Level Estimated
03:35PM 44.6344 -122.2033 346° North 432 497 40,000  Level Seattle Center
03:36PM 44.7503 -122.2428 346° North 431 496 40,000  Level Seattle Center
03:37PM 44.8728 -122.2847 346° North 429 494 40,000  Level Seattle Center
03:39PM 45.1019 -122.3650 346° North 426 490 40,000  Level Seattle Center
03:40PM 45.2144 -122.4033 347° North 419 482 40,000  Level Seattle Center
03:41PM 45.3519 -122.4511 346° North 426 490 40,000 -600 Level Seattle Center
03:43PM 45.5817 -122.5322 346° North 427 491 38,200 -1,260 Descending Seattle Center
03:44PM 45.6972 -122.5744 346° North 428 493 36,200 -1,860 Descending Seattle Center
03:45PM 45.8147 -122.6092 348° North 433 498 34,500 -2,460 Descending Seattle Center
03:46PM 45.9336 -122.6356 351° North 436 502 31,300 -2,760 Descending Seattle Center
03:47PM 46.0531 -122.6694 349° North 438 504 28,900 -2,400 Descending Seattle Center
03:49PM 46.2867 -122.7164 352° North 406 467 24,000 -2,340 Descending Seattle Center
03:50PM 46.3922 -122.7217 358° North 387 445 21,800 -2,220 Descending Seattle Center
03:51PM 46.4950 -122.7181 North 373 429 19,600 -2,220 Descending Seattle Center
03:52PM 46.5942 -122.7128 North 361 415 17,400 -2,100 Descending Seattle Center
03:53PM 46.6892 -122.7083 North 347 399 15,400 -1,920 Descending Seattle Center
03:55PM 46.8723 -122.6259 42° Northeast  Level FlightAware Approximate
03:56PM 46.9358 -122.5419 42° Northeast 315 362 9,600  Level Seattle Center
03:57PM 46.9947 -122.4667 41° Northeast 289 333 8,200 -1,440 Descending Seattle Center
03:58PM 47.0606 -122.4017 34° Northeast 279 321 6,800 -1,020 Descending Seattle Center
04:00PM 47.2476 -122.3587 10° North  Level Estimated
04:01PM 47.2622 -122.3211 132° Southeast 225 259 4,000  Level Seattle Center
04:02PM 47.3044 -122.3203 North 205 236 3,300 -1,140 Descending Seattle Center
04:03PM 47.3617 -122.3181 North 179 206 2,000 -1,140 Descending Seattle Center
04:04PM 47.4039 -122.3178 360° North 151 174 1,000 -780 Descending Seattle Center
04:05PM 47.4464 -122.3183 359° North 141 162 300 -600 Descending Seattle Center
04:07PM 47.4333 -122.3000 132° Southeast  Level FlightAware Approximate
04:07PM 47.4499 -122.3118 132° Southeast  Level Estimated
04:14PM 47.4499 -122.3118 132° Southeast  Level Estimated